createdAt,value
2023-03-20T00:00:33.088Z,23.15
2023-03-20T00:02:59.766Z,22.30
2023-03-20T00:05:28.327Z,20.98
2023-03-20T00:07:55.354Z,20.15
2023-03-20T00:10:25.765Z,20.35
2023-03-20T00:12:54.816Z,19.83
2023-03-20T00:15:35.505Z,18.77
2023-03-20T00:18:02.118Z,19.13
2023-03-20T00:20:29.960Z,20.45
2023-03-20T00:22:57.946Z,21.52
2023-03-20T00:25:25.817Z,21.55
2023-03-20T00:27:52.378Z,20.73
2023-03-20T00:30:20.921Z,20.40
2023-03-20T00:32:48.611Z,20.08
2023-03-20T00:35:22.513Z,19.83
2023-03-20T00:37:50.225Z,20.38
2023-03-20T00:40:19.593Z,20.52
2023-03-20T00:42:57.772Z,20.17
2023-03-20T00:45:24.426Z,20.08
2023-03-20T00:47:51.894Z,19.90
2023-03-20T00:50:24.648Z,20.05
2023-03-20T00:52:51.226Z,20.00
2023-03-20T00:55:23.426Z,19.05
2023-03-20T00:57:59.269Z,19.85
2023-03-20T01:00:39.891Z,19.50
2023-03-20T01:03:15.588Z,19.25
2023-03-20T01:05:42.117Z,20.63
2023-03-20T01:08:26.900Z,18.90
2023-03-20T01:10:57.579Z,19.13
2023-03-20T01:13:27.421Z,20.13
2023-03-20T01:15:56.538Z,20.95
2023-03-20T01:18:24.673Z,20.55
2023-03-20T01:20:53.003Z,20.70
2023-03-20T01:23:22.866Z,20.15
2023-03-20T01:25:50.229Z,20.92
2023-03-20T01:28:23.144Z,18.85
2023-03-20T01:30:52.575Z,18.85
2023-03-20T01:33:26.394Z,18.40
2023-03-20T01:35:52.891Z,18.92
2023-03-20T01:38:22.951Z,18.65
2023-03-20T01:41:12.294Z,19.13
2023-03-20T01:43:38.694Z,19.40
2023-03-20T01:46:21.235Z,19.58
2023-03-20T01:48:50.653Z,18.40
2023-03-20T01:51:22.669Z,19.33
2023-03-20T01:54:14.629Z,18.88
2023-03-20T01:56:48.160Z,18.90
2023-03-20T01:59:21.446Z,20.63
2023-03-20T02:01:47.889Z,19.37
2023-03-20T02:04:16.683Z,19.35
2023-03-20T02:06:45.173Z,19.25
2023-03-20T02:09:12.330Z,20.67
2023-03-20T02:11:41.868Z,19.40
2023-03-20T02:14:08.487Z,19.35
2023-03-20T02:16:34.912Z,19.92
2023-03-20T02:19:02.060Z,18.75
2023-03-20T02:21:37.579Z,20.10
2023-03-20T02:24:23.858Z,19.00
2023-03-20T02:27:02.367Z,18.42
2023-03-20T02:30:16.653Z,18.48
2023-03-20T02:33:11.334Z,18.70
2023-03-20T02:36:09.003Z,18.88
2023-03-20T02:38:58.769Z,20.30
2023-03-20T02:41:37.996Z,19.40
2023-03-20T02:44:11.548Z,19.88
2023-03-20T02:46:52.690Z,19.73
2023-03-20T02:49:47.091Z,19.88
2023-03-20T02:52:17.491Z,20.40
2023-03-20T02:55:19.447Z,21.00
2023-03-20T02:57:55.363Z,20.00
2023-03-20T03:00:28.468Z,21.48
2023-03-20T03:03:06.711Z,20.13
2023-03-20T03:05:56.279Z,19.38
2023-03-20T03:08:28.565Z,17.50
2023-03-20T03:11:01.248Z,18.70
2023-03-20T03:13:30.582Z,18.15
2023-03-20T03:16:04.207Z,18.75
2023-03-20T03:18:34.491Z,19.08
2023-03-20T03:21:03.675Z,17.15
2023-03-20T03:23:40.410Z,19.15
2023-03-20T03:26:08.062Z,19.08
2023-03-20T03:28:45.783Z,18.90
2023-03-20T03:31:15.296Z,20.90
2023-03-20T03:33:46.925Z,20.23
2023-03-20T03:36:41.307Z,20.02
2023-03-20T03:39:44.657Z,20.77
2023-03-20T03:42:27.728Z,19.38
2023-03-20T03:45:31.725Z,20.23
2023-03-20T03:48:13.914Z,20.40
2023-03-20T03:50:48.325Z,21.85
2023-03-20T03:53:19.705Z,21.35
2023-03-20T03:55:52.586Z,22.77
2023-03-20T03:58:25.712Z,22.65
2023-03-20T04:00:55.936Z,22.95
2023-03-20T04:03:28.399Z,23.70
2023-03-20T04:05:58.060Z,24.33
2023-03-20T04:08:24.528Z,23.38
2023-03-20T04:10:51.170Z,23.90
2023-03-20T04:13:17.627Z,23.40
2023-03-20T04:15:44.438Z,23.17
2023-03-20T04:18:16.712Z,23.27
2023-03-20T04:20:44.809Z,24.65
2023-03-20T04:23:11.358Z,25.35
2023-03-20T04:25:38.124Z,25.27
2023-03-20T04:28:05.152Z,23.77
2023-03-20T04:30:31.641Z,23.00
2023-03-20T04:32:58.117Z,24.88
2023-03-20T04:35:24.793Z,26.25
2023-03-20T04:37:51.187Z,25.77
2023-03-20T04:40:17.766Z,26.70
2023-03-20T04:42:44.257Z,26.98
2023-03-20T04:45:10.776Z,27.65
2023-03-20T04:47:39.529Z,25.83
2023-03-20T04:50:07.192Z,27.33
2023-03-20T04:52:33.592Z,28.58
2023-03-20T04:55:00.169Z,29.20
2023-03-20T04:57:27.124Z,29.67
2023-03-20T04:59:53.657Z,29.85
2023-03-20T05:02:20.456Z,27.45
2023-03-20T05:04:47.151Z,27.58
2023-03-20T05:07:13.516Z,27.77
2023-03-20T05:09:40.248Z,29.17
2023-03-20T05:12:07.040Z,25.80
2023-03-20T05:14:33.448Z,25.67
2023-03-20T05:16:59.846Z,26.17
2023-03-20T05:19:26.322Z,27.05
2023-03-20T05:21:52.813Z,26.45
2023-03-20T05:24:19.354Z,26.70
2023-03-20T05:26:45.828Z,28.35
2023-03-20T05:29:12.277Z,26.00
2023-03-20T05:31:39.154Z,26.00
2023-03-20T05:34:05.729Z,26.92
2023-03-20T05:36:32.241Z,24.80
2023-03-20T05:38:58.949Z,23.70
2023-03-20T05:41:46.297Z,27.40
2023-03-20T05:44:12.771Z,26.63
2023-03-20T05:46:39.170Z,26.45
2023-03-20T05:49:05.567Z,25.52
2023-03-20T05:51:31.927Z,25.73
2023-03-20T05:53:58.400Z,23.77
2023-03-20T05:56:24.865Z,25.30
2023-03-20T05:58:52.035Z,24.75
2023-03-20T06:01:21.377Z,29.00
2023-03-20T06:03:48.816Z,26.63
2023-03-20T06:06:16.550Z,27.70
2023-03-20T06:08:43.124Z,26.40
2023-03-20T06:11:10.371Z,26.77
2023-03-20T06:13:36.731Z,25.50
2023-03-20T06:16:03.406Z,25.00
2023-03-20T06:18:29.826Z,23.88
2023-03-20T06:20:57.705Z,24.83
2023-03-20T06:23:24.809Z,24.58
2023-03-20T06:25:51.231Z,24.67
2023-03-20T06:28:17.621Z,25.20
2023-03-20T06:30:44.499Z,24.08
2023-03-20T06:33:10.936Z,25.42
2023-03-20T06:35:37.551Z,26.45
2023-03-20T06:38:04.147Z,24.67
2023-03-20T06:40:30.541Z,23.90
2023-03-20T06:42:56.982Z,24.30
2023-03-20T06:45:23.395Z,23.90
2023-03-20T06:47:49.740Z,23.55
2023-03-20T06:50:16.568Z,24.55
2023-03-20T06:52:43.330Z,23.85
2023-03-20T06:55:09.880Z,23.73
2023-03-20T06:57:36.234Z,24.05
2023-03-20T07:00:05.507Z,24.50
2023-03-20T07:02:32.381Z,24.42
2023-03-20T07:04:59.104Z,24.15
2023-03-20T07:07:25.694Z,23.95
2023-03-20T07:09:52.222Z,24.30
2023-03-20T07:12:21.371Z,24.50
2023-03-20T07:14:47.752Z,25.92
2023-03-20T07:17:14.083Z,25.20
2023-03-20T07:19:41.352Z,24.35
2023-03-20T07:22:15.294Z,24.50
2023-03-20T07:24:41.679Z,21.85
2023-03-20T07:27:08.006Z,21.63
2023-03-20T07:29:34.355Z,22.52
2023-03-20T07:32:02.420Z,25.10
2023-03-20T07:34:28.761Z,23.02
2023-03-20T07:36:55.333Z,23.75
2023-03-20T07:39:22.200Z,20.15
2023-03-20T07:41:48.581Z,19.55
2023-03-20T07:44:15.163Z,18.48
2023-03-20T07:46:41.571Z,19.60
2023-03-20T07:49:08.028Z,19.92
2023-03-20T07:51:34.504Z,19.85
2023-03-20T07:54:00.982Z,19.52
2023-03-20T07:56:27.381Z,19.85
2023-03-20T07:58:54.669Z,18.73
2023-03-20T08:01:21.326Z,18.88
2023-03-20T08:03:47.853Z,17.67
2023-03-20T08:06:14.195Z,17.35
2023-03-20T08:08:41.895Z,17.00
2023-03-20T08:11:08.306Z,15.93
2023-03-20T08:13:34.680Z,15.52
2023-03-20T08:16:01.232Z,15.70
2023-03-20T08:18:27.559Z,14.20
2023-03-20T08:20:53.887Z,15.30
2023-03-20T08:23:20.994Z,15.60
2023-03-20T08:25:52.074Z,15.15
2023-03-20T08:28:18.807Z,14.73
2023-03-20T08:30:45.242Z,15.35
2023-03-20T08:33:12.086Z,15.43
2023-03-20T08:35:38.620Z,12.95
2023-03-20T08:38:05.093Z,11.63
2023-03-20T08:40:31.766Z,12.82
2023-03-20T08:42:59.377Z,13.00
2023-03-20T08:45:26.190Z,11.63
2023-03-20T08:47:53.333Z,11.27
2023-03-20T08:50:19.968Z,11.15
2023-03-20T08:52:46.921Z,9.80
2023-03-20T08:55:15.020Z,10.73
2023-03-20T08:57:41.601Z,10.32
2023-03-20T09:00:10.373Z,9.30
2023-03-20T09:02:36.892Z,9.70
2023-03-20T09:05:03.646Z,9.63
2023-03-20T09:07:30.037Z,9.45
2023-03-20T09:09:56.541Z,10.35
2023-03-20T09:12:22.963Z,9.10
2023-03-20T09:14:49.379Z,9.27
2023-03-20T09:17:15.896Z,9.07
2023-03-20T09:19:44.577Z,8.68
2023-03-20T09:22:13.892Z,8.23
2023-03-20T09:24:40.814Z,7.63
2023-03-20T09:27:07.201Z,8.82
2023-03-20T09:29:33.542Z,7.70
2023-03-20T09:31:59.914Z,8.32
2023-03-20T09:34:26.331Z,7.40
2023-03-20T09:36:52.942Z,6.90
2023-03-20T09:39:19.290Z,6.50
2023-03-20T09:41:57.249Z,5.95
2023-03-20T09:44:29.884Z,6.05
2023-03-20T09:47:18.500Z,6.07
2023-03-20T09:50:23.713Z,6.35
2023-03-20T09:53:36.778Z,5.80
2023-03-20T09:56:04.094Z,6.25
2023-03-20T09:58:34.160Z,5.22
2023-03-20T10:01:02.662Z,6.22
2023-03-20T10:03:38.960Z,6.40
2023-03-20T10:06:12.061Z,6.15
2023-03-20T10:08:39.310Z,6.78
2023-03-20T10:11:27.299Z,7.28
2023-03-20T10:14:42.016Z,7.00
2023-03-20T10:17:14.301Z,6.97
2023-03-20T10:19:50.923Z,7.07
2023-03-20T10:22:35.891Z,6.20
2023-03-20T10:25:17.657Z,5.78
2023-03-20T10:27:49.511Z,6.13
2023-03-20T10:30:53.486Z,6.20
2023-03-20T10:33:52.672Z,6.05
2023-03-20T10:36:47.869Z,6.82
2023-03-20T10:39:50.378Z,6.80
2023-03-20T10:42:22.789Z,6.80
2023-03-20T10:44:55.497Z,7.22
2023-03-20T10:47:26.673Z,7.85
2023-03-20T10:49:58.218Z,10.00
2023-03-20T10:52:32.228Z,10.85
2023-03-20T10:55:19.400Z,11.02
2023-03-20T10:57:52.730Z,11.50
2023-03-20T11:00:25.858Z,13.87
2023-03-20T11:02:52.353Z,11.73
2023-03-20T11:05:39.492Z,11.60
2023-03-20T11:08:08.906Z,11.27
2023-03-20T11:10:37.890Z,10.77
2023-03-20T11:13:26.533Z,11.18
2023-03-20T11:15:54.190Z,11.65
2023-03-20T11:18:23.284Z,14.13
2023-03-20T11:20:52.889Z,15.35
2023-03-20T11:23:25.583Z,17.35
2023-03-20T11:25:57.395Z,16.67
2023-03-20T11:28:40.607Z,14.15
2023-03-20T11:31:17.880Z,11.85
2023-03-20T11:33:46.963Z,12.77
2023-03-20T11:36:29.944Z,13.18
2023-03-20T11:39:14.567Z,15.15
2023-03-20T11:44:37.011Z,14.23
2023-03-20T11:47:22.528Z,14.85
2023-03-20T11:49:56.075Z,18.15
2023-03-20T11:52:25.904Z,17.92
2023-03-20T11:54:56.114Z,17.63
2023-03-20T11:57:37.243Z,16.70
2023-03-20T12:00:26.022Z,14.93
2023-03-20T12:02:52.601Z,13.88
2023-03-20T12:05:43.870Z,12.05
2023-03-20T12:08:20.105Z,10.43
2023-03-20T12:10:55.495Z,12.18
2023-03-20T12:13:26.210Z,8.60
2023-03-20T12:15:59.414Z,8.63
2023-03-20T12:18:40.902Z,7.68
2023-03-20T12:21:13.353Z,8.38
2023-03-20T12:24:25.785Z,7.07
2023-03-20T12:27:07.723Z,6.63
2023-03-20T13:15:01.284Z,6.78
2023-03-20T13:17:44.728Z,7.20
2023-03-20T13:20:28.929Z,6.90
2023-03-20T13:23:21.978Z,6.95
2023-03-20T13:25:58.584Z,7.65
2023-03-20T13:29:01.930Z,7.25
2023-03-20T13:31:36.803Z,6.43
2023-03-20T13:34:03.253Z,6.40
2023-03-20T13:36:54.008Z,6.93
2023-03-20T13:39:42.988Z,7.05
2023-03-20T13:42:14.847Z,7.10
2023-03-20T13:44:43.241Z,6.38
2023-03-20T13:47:18.123Z,6.07
2023-03-20T13:50:01.612Z,6.85
2023-03-20T13:52:42.706Z,5.93
2023-03-20T13:55:35.832Z,6.38
2023-03-20T13:58:27.940Z,5.82
2023-03-20T14:01:06.675Z,6.28
2023-03-20T14:03:37.260Z,5.63
2023-03-20T14:06:31.750Z,6.43
2023-03-20T14:08:59.450Z,7.28
2023-03-20T14:11:35.045Z,6.00
2023-03-20T14:14:19.631Z,6.57
2023-03-20T14:19:21.087Z,6.40
2023-03-20T14:21:49.114Z,7.00
2023-03-20T14:24:19.338Z,6.68
2023-03-20T14:26:52.730Z,5.85
2023-03-20T14:29:46.836Z,6.07
2023-03-20T14:32:13.144Z,6.20
2023-03-20T14:35:18.828Z,6.32
2023-03-20T14:38:20.827Z,6.40
2023-03-20T14:40:59.592Z,5.53
2023-03-20T14:43:58.556Z,5.72
2023-03-20T14:46:46.865Z,6.30
2023-03-20T14:49:22.717Z,5.55
2023-03-20T14:51:53.085Z,5.47
2023-03-20T14:54:22.421Z,6.40
2023-03-20T14:56:50.751Z,7.25
2023-03-20T14:59:19.659Z,7.15
2023-03-20T15:01:47.714Z,7.20
2023-03-20T15:04:26.340Z,7.03
2023-03-20T15:06:58.793Z,7.25
2023-03-20T15:09:27.441Z,7.38
2023-03-20T15:11:59.576Z,7.45
2023-03-20T15:14:29.184Z,7.05
2023-03-20T15:17:01.153Z,7.07
2023-03-20T15:19:28.327Z,7.47
2023-03-20T15:21:55.830Z,6.93
2023-03-20T15:24:23.703Z,6.20
2023-03-20T15:26:55.693Z,6.82
2023-03-20T15:29:23.180Z,5.82
2023-03-20T15:32:15.610Z,5.90
2023-03-20T15:34:43.013Z,6.22
2023-03-20T15:37:19.873Z,6.10
2023-03-20T15:39:53.780Z,6.40
2023-03-20T15:42:24.098Z,6.38
2023-03-20T15:44:53.238Z,5.85
2023-03-20T15:47:24.682Z,6.40
2023-03-20T15:49:56.800Z,7.50
2023-03-20T15:52:32.302Z,7.40
2023-03-20T15:55:03.100Z,7.47
2023-03-20T15:57:42.062Z,7.82
2023-03-20T16:00:24.147Z,7.07
2023-03-20T16:02:50.801Z,7.85
2023-03-20T16:05:18.665Z,7.40
2023-03-20T16:07:45.093Z,7.30
2023-03-20T16:10:17.517Z,6.85
2023-03-20T16:12:49.481Z,6.80
2023-03-20T16:15:20.182Z,6.88
2023-03-20T16:17:50.859Z,7.18
2023-03-20T16:20:18.151Z,7.50
2023-03-20T16:22:45.871Z,7.68
2023-03-20T16:25:15.996Z,7.22
2023-03-20T16:27:45.687Z,7.15
2023-03-20T16:30:19.436Z,6.97
2023-03-20T16:32:51.129Z,6.82
2023-03-20T16:35:25.792Z,7.53
2023-03-20T16:37:56.819Z,6.55
2023-03-20T16:40:35.962Z,6.72
2023-03-20T16:43:28.324Z,6.40
2023-03-20T16:45:57.161Z,6.47
2023-03-20T16:48:23.496Z,6.13
2023-03-20T16:50:56.872Z,6.43
2023-03-20T16:53:24.846Z,6.00
2023-03-20T16:55:55.812Z,6.45
2023-03-20T16:58:27.170Z,7.60
2023-03-20T17:01:06.203Z,7.10
2023-03-20T17:03:45.878Z,6.97
2023-03-20T17:06:21.585Z,7.65
2023-03-20T17:08:52.713Z,7.78
2023-03-20T17:11:29.138Z,7.50
2023-03-20T17:13:55.554Z,7.53
2023-03-20T17:16:22.622Z,7.55
2023-03-20T17:18:59.642Z,7.32
2023-03-20T17:21:26.090Z,7.35
2023-03-20T17:23:52.901Z,7.10
2023-03-20T17:26:19.273Z,7.50
2023-03-20T17:28:46.011Z,7.82
2023-03-20T17:31:14.091Z,7.82
2023-03-20T17:33:41.252Z,7.07
2023-03-20T17:36:29.843Z,7.50
2023-03-20T17:38:57.643Z,7.53
2023-03-20T17:41:25.199Z,7.85
2023-03-20T17:43:52.147Z,7.57
2023-03-20T17:46:27.002Z,8.20
2023-03-20T17:48:59.339Z,7.95
2023-03-20T17:51:25.886Z,8.27
2023-03-20T17:53:55.410Z,7.60
2023-03-20T17:56:22.424Z,7.35
2023-03-20T17:58:48.949Z,7.95
2023-03-20T18:01:15.469Z,7.80
2023-03-20T18:03:42.366Z,7.45
2023-03-20T18:06:19.940Z,7.78
2023-03-20T18:08:46.362Z,7.95
2023-03-20T18:11:12.782Z,7.97
2023-03-20T18:13:39.139Z,8.05
2023-03-20T18:16:05.807Z,8.50
2023-03-20T18:18:32.361Z,10.35
2023-03-20T18:20:59.382Z,11.48
2023-03-20T18:23:25.754Z,12.25
2023-03-20T18:25:52.206Z,12.68
2023-03-20T18:28:22.734Z,12.90
2023-03-20T18:30:50.614Z,12.25
2023-03-20T18:33:17.244Z,13.63
2023-03-20T18:35:43.886Z,13.30
2023-03-20T18:38:13.719Z,15.25
2023-03-20T18:40:42.530Z,14.07
2023-03-20T18:43:10.664Z,14.48
2023-03-20T18:45:40.513Z,15.48
2023-03-20T18:48:11.491Z,15.57
2023-03-20T18:50:42.212Z,17.13
2023-03-20T18:53:10.781Z,17.35
2023-03-20T18:55:38.295Z,17.00
2023-03-20T18:58:06.408Z,18.45
2023-03-20T19:00:42.653Z,21.48
2023-03-20T19:03:11.056Z,18.67
2023-03-20T19:05:37.693Z,17.27
2023-03-20T19:08:04.920Z,17.85
2023-03-20T19:10:40.532Z,17.98
2023-03-20T19:13:10.971Z,17.27
2023-03-20T19:15:38.563Z,17.98
2023-03-20T19:18:07.229Z,17.83
2023-03-20T19:20:42.106Z,17.58
2023-03-20T19:23:10.818Z,17.20
2023-03-20T19:25:38.262Z,17.83
2023-03-20T19:28:05.811Z,18.45
2023-03-20T19:30:35.870Z,17.63
2023-03-20T19:33:03.338Z,18.95
2023-03-20T19:35:58.454Z,19.27
2023-03-20T19:38:21.779Z,19.00
2023-03-20T19:40:52.867Z,16.33
2023-03-20T19:43:23.164Z,17.50
2023-03-20T19:45:57.990Z,18.83
2023-03-20T19:48:43.231Z,17.55
2023-03-20T19:51:18.976Z,18.35
2023-03-20T19:53:46.406Z,20.08
2023-03-20T19:56:14.466Z,18.85
2023-03-20T19:58:44.369Z,18.80
2023-03-20T20:01:17.058Z,19.52
2023-03-20T20:03:45.026Z,17.35
2023-03-20T20:06:12.358Z,18.38
2023-03-20T20:08:47.983Z,18.90
2023-03-20T20:11:15.951Z,19.63
2023-03-20T20:14:03.559Z,19.35
2023-03-20T20:16:31.643Z,19.20
2023-03-20T20:18:58.073Z,19.38
2023-03-20T20:24:50.563Z,17.65
2023-03-20T20:27:18.948Z,19.70
2023-03-20T20:29:50.736Z,18.70
2023-03-20T20:32:21.962Z,19.05
2023-03-20T20:36:27.877Z,19.35
2023-03-20T20:54:14.119Z,14.55
2023-03-20T20:56:40.897Z,16.35
2023-03-20T20:59:08.960Z,16.65
2023-03-20T21:01:39.661Z,19.35
2023-03-20T21:04:08.547Z,19.33
2023-03-20T21:07:06.125Z,17.90
2023-03-20T21:09:26.524Z,18.33
2023-03-20T21:11:53.004Z,19.63
2023-03-20T21:14:19.708Z,19.13
2023-03-20T21:16:46.189Z,20.23
2023-03-20T21:19:24.562Z,18.25
2023-03-20T21:21:51.216Z,18.50
2023-03-20T21:24:31.471Z,19.00
2023-03-20T21:27:00.360Z,17.90
2023-03-20T21:29:27.265Z,18.58
2023-03-20T21:31:53.880Z,19.13
2023-03-20T21:34:20.657Z,18.85
2023-03-20T21:36:49.233Z,19.33
2023-03-20T21:39:17.208Z,18.48
2023-03-20T21:41:44.145Z,18.20
2023-03-20T21:44:17.106Z,18.30
2023-03-20T21:47:29.445Z,17.13
2023-03-20T21:53:06.756Z,17.33
2023-03-20T21:56:16.950Z,17.55
2023-03-20T21:58:44.566Z,17.60
2023-03-20T22:04:19.114Z,18.30
2023-03-20T22:12:59.395Z,17.48
2023-03-20T22:15:38.812Z,16.50
2023-03-20T22:17:59.793Z,16.83
2023-03-20T22:29:28.643Z,17.30
2023-03-20T22:45:42.454Z,15.85
2023-03-20T22:48:14.660Z,17.83
2023-03-20T22:50:44.347Z,16.15
2023-03-20T22:53:11.133Z,17.73
2023-03-20T22:55:41.641Z,16.45
2023-03-20T22:58:10.208Z,18.38
2023-03-20T23:00:37.375Z,18.08
2023-03-20T23:03:42.200Z,18.00
2023-03-20T23:06:21.097Z,18.05
2023-03-20T23:08:54.559Z,17.08
2023-03-20T23:11:24.618Z,16.95
2023-03-20T23:13:56.469Z,19.08
2023-03-20T23:16:23.174Z,18.70
2023-03-20T23:19:07.602Z,18.63
2023-03-20T23:21:34.129Z,18.17
2023-03-20T23:24:00.583Z,18.60
2023-03-20T23:26:30.160Z,18.02
2023-03-20T23:28:57.720Z,17.95
2023-03-20T23:31:26.615Z,18.63
2023-03-20T23:33:59.097Z,18.05
2023-03-20T23:36:36.404Z,19.25
2023-03-20T23:39:06.153Z,18.80
2023-03-20T23:42:04.697Z,19.15
2023-03-20T23:44:22.295Z,19.48
2023-03-20T23:46:49.145Z,18.95
2023-03-20T23:49:17.885Z,19.05
2023-03-20T23:51:46.613Z,18.05
2023-03-20T23:54:14.691Z,18.90
2023-03-20T23:56:45.202Z,18.50
2023-03-20T23:59:21.952Z,19.95
